sensor_id;sensor_type;location;lat;lon;timestamp;temperature;humidity
33105;DHT22;19476;51.448;6.674;2023-03-14T00:01:56;15.80;55.50
33105;DHT22;19476;51.448;6.674;2023-03-14T00:04:22;15.80;55.50
33105;DHT22;19476;51.448;6.674;2023-03-14T00:06:48;15.80;55.50
33105;DHT22;19476;51.448;6.674;2023-03-14T00:09:15;15.80;55.50
33105;DHT22;19476;51.448;6.674;2023-03-14T00:11:42;15.80;55.50
33105;DHT22;19476;51.448;6.674;2023-03-14T00:14:07;15.80;55.50
33105;DHT22;19476;51.448;6.674;2023-03-14T00:16:33;15.80;56.10
33105;DHT22;19476;51.448;6.674;2023-03-14T00:18:59;15.80;55.50
33105;DHT22;19476;51.448;6.674;2023-03-14T00:21:26;15.80;55.60
33105;DHT22;19476;51.448;6.674;2023-03-14T00:23:52;15.80;55.60
33105;DHT22;19476;51.448;6.674;2023-03-14T00:26:20;15.90;55.50
33105;DHT22;19476;51.448;6.674;2023-03-14T00:28:46;15.90;55.60
33105;DHT22;19476;51.448;6.674;2023-03-14T00:31:14;15.90;55.70
33105;DHT22;19476;51.448;6.674;2023-03-14T00:33:41;15.90;55.80
33105;DHT22;19476;51.448;6.674;2023-03-14T00:36:10;15.90;55.90
33105;DHT22;19476;51.448;6.674;2023-03-14T00:38:38;15.90;56.30
33105;DHT22;19476;51.448;6.674;2023-03-14T00:41:06;15.90;56.90
33105;DHT22;19476;51.448;6.674;2023-03-14T00:43:32;15.90;57.10
33105;DHT22;19476;51.448;6.674;2023-03-14T00:45:58;15.90;57.70
33105;DHT22;19476;51.448;6.674;2023-03-14T00:48:24;15.80;57.30
33105;DHT22;19476;51.448;6.674;2023-03-14T00:50:50;15.80;57.60
33105;DHT22;19476;51.448;6.674;2023-03-14T00:53:16;15.70;57.60
33105;DHT22;19476;51.448;6.674;2023-03-14T00:55:43;15.70;57.70
33105;DHT22;19476;51.448;6.674;2023-03-14T00:58:12;15.60;57.80
33105;DHT22;19476;51.448;6.674;2023-03-14T01:00:39;15.60;57.90
33105;DHT22;19476;51.448;6.674;2023-03-14T01:03:06;15.50;57.80
33105;DHT22;19476;51.448;6.674;2023-03-14T01:05:32;15.50;57.80
33105;DHT22;19476;51.448;6.674;2023-03-14T01:07:58;15.50;58.30
33105;DHT22;19476;51.448;6.674;2023-03-14T01:10:24;15.40;57.70
33105;DHT22;19476;51.448;6.674;2023-03-14T01:12:50;15.40;57.70
33105;DHT22;19476;51.448;6.674;2023-03-14T01:15:16;15.40;57.70
33105;DHT22;19476;51.448;6.674;2023-03-14T01:17:42;15.30;57.60
33105;DHT22;19476;51.448;6.674;2023-03-14T01:20:10;15.30;57.50
33105;DHT22;19476;51.448;6.674;2023-03-14T01:22:38;15.30;57.60
33105;DHT22;19476;51.448;6.674;2023-03-14T01:25:10;15.30;57.40
33105;DHT22;19476;51.448;6.674;2023-03-14T01:27:36;15.30;57.40
33105;DHT22;19476;51.448;6.674;2023-03-14T01:30:03;15.30;57.30
33105;DHT22;19476;51.448;6.674;2023-03-14T01:32:29;15.20;57.40
33105;DHT22;19476;51.448;6.674;2023-03-14T01:34:54;15.20;57.40
33105;DHT22;19476;51.448;6.674;2023-03-14T01:37:21;15.20;57.40
33105;DHT22;19476;51.448;6.674;2023-03-14T01:39:47;15.10;57.50
33105;DHT22;19476;51.448;6.674;2023-03-14T01:42:13;15.10;57.50
33105;DHT22;19476;51.448;6.674;2023-03-14T01:44:54;15.10;57.50
33105;DHT22;19476;51.448;6.674;2023-03-14T01:47:21;15.10;57.80
33105;DHT22;19476;51.448;6.674;2023-03-14T01:52:31;15.10;57.50
33105;DHT22;19476;51.448;6.674;2023-03-14T01:55:10;15.00;57.50
33105;DHT22;19476;51.448;6.674;2023-03-14T01:57:41;15.00;57.50
33105;DHT22;19476;51.448;6.674;2023-03-14T02:00:13;15.00;57.40
33105;DHT22;19476;51.448;6.674;2023-03-14T02:02:48;15.00;57.40
33105;DHT22;19476;51.448;6.674;2023-03-14T02:05:18;14.90;57.40
33105;DHT22;19476;51.448;6.674;2023-03-14T02:07:53;14.90;57.50
33105;DHT22;19476;51.448;6.674;2023-03-14T02:10:22;14.90;57.60
33105;DHT22;19476;51.448;6.674;2023-03-14T02:12:49;14.90;57.50
33105;DHT22;19476;51.448;6.674;2023-03-14T02:15:16;14.90;57.40
33105;DHT22;19476;51.448;6.674;2023-03-14T02:17:43;14.90;57.40
33105;DHT22;19476;51.448;6.674;2023-03-14T02:22:51;14.90;57.70
33105;DHT22;19476;51.448;6.674;2023-03-14T02:28:01;14.90;57.50
33105;DHT22;19476;51.448;6.674;2023-03-14T02:30:29;14.90;57.40
33105;DHT22;19476;51.448;6.674;2023-03-14T02:33:07;15.00;57.50
33105;DHT22;19476;51.448;6.674;2023-03-14T02:35:44;15.00;57.50
33105;DHT22;19476;51.448;6.674;2023-03-14T02:38:31;14.90;57.50
33105;DHT22;19476;51.448;6.674;2023-03-14T02:40:59;14.90;57.60
33105;DHT22;19476;51.448;6.674;2023-03-14T02:43:24;14.90;57.40
33105;DHT22;19476;51.448;6.674;2023-03-14T02:45:52;14.90;57.50
33105;DHT22;19476;51.448;6.674;2023-03-14T02:48:21;14.90;57.70
33105;DHT22;19476;51.448;6.674;2023-03-14T02:50:54;14.90;57.90
33105;DHT22;19476;51.448;6.674;2023-03-14T02:53:26;14.90;57.90
33105;DHT22;19476;51.448;6.674;2023-03-14T02:55:52;14.90;57.90
33105;DHT22;19476;51.448;6.674;2023-03-14T02:58:19;14.90;57.80
33105;DHT22;19476;51.448;6.674;2023-03-14T03:00:45;14.90;57.90
33105;DHT22;19476;51.448;6.674;2023-03-14T03:03:11;14.90;57.90
33105;DHT22;19476;51.448;6.674;2023-03-14T03:05:37;14.90;57.90
33105;DHT22;19476;51.448;6.674;2023-03-14T03:08:04;14.90;57.80
33105;DHT22;19476;51.448;6.674;2023-03-14T03:10:30;14.90;57.90
33105;DHT22;19476;51.448;6.674;2023-03-14T03:12:56;14.90;57.90
33105;DHT22;19476;51.448;6.674;2023-03-14T03:15:22;14.90;57.80
33105;DHT22;19476;51.448;6.674;2023-03-14T03:17:48;14.90;57.80
33105;DHT22;19476;51.448;6.674;2023-03-14T03:20:14;14.90;57.70
33105;DHT22;19476;51.448;6.674;2023-03-14T03:22:40;14.90;57.70
33105;DHT22;19476;51.448;6.674;2023-03-14T03:25:07;15.00;57.80
33105;DHT22;19476;51.448;6.674;2023-03-14T03:27:34;15.00;57.80
33105;DHT22;19476;51.448;6.674;2023-03-14T03:30:01;14.90;57.70
33105;DHT22;19476;51.448;6.674;2023-03-14T03:32:27;15.00;57.70
33105;DHT22;19476;51.448;6.674;2023-03-14T03:34:53;14.90;57.60
33105;DHT22;19476;51.448;6.674;2023-03-14T03:37:18;14.90;57.60
33105;DHT22;19476;51.448;6.674;2023-03-14T03:39:44;14.90;57.80
33105;DHT22;19476;51.448;6.674;2023-03-14T03:42:10;14.90;57.80
33105;DHT22;19476;51.448;6.674;2023-03-14T03:44:36;14.90;57.80
33105;DHT22;19476;51.448;6.674;2023-03-14T03:47:02;14.90;57.90
33105;DHT22;19476;51.448;6.674;2023-03-14T03:49:32;14.90;57.90
33105;DHT22;19476;51.448;6.674;2023-03-14T03:51:58;15.00;58.10
33105;DHT22;19476;51.448;6.674;2023-03-14T03:54:24;14.90;58.10
33105;DHT22;19476;51.448;6.674;2023-03-14T03:56:51;14.90;58.20
33105;DHT22;19476;51.448;6.674;2023-03-14T03:59:17;14.90;58.50
33105;DHT22;19476;51.448;6.674;2023-03-14T04:01:44;14.90;58.50
33105;DHT22;19476;51.448;6.674;2023-03-14T04:04:10;14.90;58.60
33105;DHT22;19476;51.448;6.674;2023-03-14T04:06:37;14.90;58.50
33105;DHT22;19476;51.448;6.674;2023-03-14T04:09:03;14.80;58.60
33105;DHT22;19476;51.448;6.674;2023-03-14T04:11:29;14.80;58.70
33105;DHT22;19476;51.448;6.674;2023-03-14T04:13:55;15.00;58.80
33105;DHT22;19476;51.448;6.674;2023-03-14T04:16:22;14.80;58.80
33105;DHT22;19476;51.448;6.674;2023-03-14T04:18:49;14.80;59.30
33105;DHT22;19476;51.448;6.674;2023-03-14T04:21:16;14.80;59.30
33105;DHT22;19476;51.448;6.674;2023-03-14T04:23:42;14.80;59.60
33105;DHT22;19476;51.448;6.674;2023-03-14T04:26:08;14.70;59.60
33105;DHT22;19476;51.448;6.674;2023-03-14T04:28:34;14.70;59.70
33105;DHT22;19476;51.448;6.674;2023-03-14T04:31:13;14.60;59.80
33105;DHT22;19476;51.448;6.674;2023-03-14T04:33:39;14.60;60.30
33105;DHT22;19476;51.448;6.674;2023-03-14T04:36:06;14.60;60.00
33105;DHT22;19476;51.448;6.674;2023-03-14T04:38:32;14.60;60.20
33105;DHT22;19476;51.448;6.674;2023-03-14T04:40:58;14.50;60.00
33105;DHT22;19476;51.448;6.674;2023-03-14T04:43:25;14.50;60.00
33105;DHT22;19476;51.448;6.674;2023-03-14T04:45:53;14.50;60.20
33105;DHT22;19476;51.448;6.674;2023-03-14T04:48:19;14.50;60.40
33105;DHT22;19476;51.448;6.674;2023-03-14T04:50:46;14.40;60.40
33105;DHT22;19476;51.448;6.674;2023-03-14T04:53:12;14.30;60.50
33105;DHT22;19476;51.448;6.674;2023-03-14T04:55:38;14.40;60.50
33105;DHT22;19476;51.448;6.674;2023-03-14T04:58:04;14.30;60.60
33105;DHT22;19476;51.448;6.674;2023-03-14T05:00:30;14.30;60.70
33105;DHT22;19476;51.448;6.674;2023-03-14T05:02:56;14.30;60.80
33105;DHT22;19476;51.448;6.674;2023-03-14T05:05:22;14.20;60.90
33105;DHT22;19476;51.448;6.674;2023-03-14T05:07:47;14.20;61.00
33105;DHT22;19476;51.448;6.674;2023-03-14T05:10:13;14.20;61.10
33105;DHT22;19476;51.448;6.674;2023-03-14T05:12:39;14.20;61.20
33105;DHT22;19476;51.448;6.674;2023-03-14T05:15:05;14.20;61.30
33105;DHT22;19476;51.448;6.674;2023-03-14T05:17:34;14.20;61.40
33105;DHT22;19476;51.448;6.674;2023-03-14T05:20:01;14.20;61.70
33105;DHT22;19476;51.448;6.674;2023-03-14T05:22:27;14.20;61.60
33105;DHT22;19476;51.448;6.674;2023-03-14T05:24:52;14.20;61.50
33105;DHT22;19476;51.448;6.674;2023-03-14T05:27:23;14.20;61.60
33105;DHT22;19476;51.448;6.674;2023-03-14T05:29:49;14.20;61.60
33105;DHT22;19476;51.448;6.674;2023-03-14T05:32:15;14.20;61.80
33105;DHT22;19476;51.448;6.674;2023-03-14T05:34:41;14.20;61.70
33105;DHT22;19476;51.448;6.674;2023-03-14T05:37:07;14.20;61.80
33105;DHT22;19476;51.448;6.674;2023-03-14T05:39:32;14.20;61.80
33105;DHT22;19476;51.448;6.674;2023-03-14T05:41:58;14.20;61.80
33105;DHT22;19476;51.448;6.674;2023-03-14T05:44:24;14.20;61.90
33105;DHT22;19476;51.448;6.674;2023-03-14T05:46:50;14.20;61.90
33105;DHT22;19476;51.448;6.674;2023-03-14T05:49:16;14.20;62.00
33105;DHT22;19476;51.448;6.674;2023-03-14T05:51:42;14.30;62.30
33105;DHT22;19476;51.448;6.674;2023-03-14T05:54:08;14.20;62.10
33105;DHT22;19476;51.448;6.674;2023-03-14T05:56:33;14.30;62.20
33105;DHT22;19476;51.448;6.674;2023-03-14T05:58:59;14.30;62.20
33105;DHT22;19476;51.448;6.674;2023-03-14T06:01:27;14.30;62.20
33105;DHT22;19476;51.448;6.674;2023-03-14T06:03:53;14.00;62.10
33105;DHT22;19476;51.448;6.674;2023-03-14T06:06:19;14.30;62.30
33105;DHT22;19476;51.448;6.674;2023-03-14T06:08:45;14.30;62.90
33105;DHT22;19476;51.448;6.674;2023-03-14T06:11:11;14.40;62.60
33105;DHT22;19476;51.448;6.674;2023-03-14T06:13:36;14.40;62.70
33105;DHT22;19476;51.448;6.674;2023-03-14T06:16:02;14.40;62.70
33105;DHT22;19476;51.448;6.674;2023-03-14T06:18:28;14.40;62.70
33105;DHT22;19476;51.448;6.674;2023-03-14T06:20:55;14.40;62.70
33105;DHT22;19476;51.448;6.674;2023-03-14T06:23:21;14.40;62.80
33105;DHT22;19476;51.448;6.674;2023-03-14T06:25:47;14.50;62.80
33105;DHT22;19476;51.448;6.674;2023-03-14T06:28:14;14.50;62.80
33105;DHT22;19476;51.448;6.674;2023-03-14T06:30:41;14.40;62.80
33105;DHT22;19476;51.448;6.674;2023-03-14T06:33:06;14.50;63.00
33105;DHT22;19476;51.448;6.674;2023-03-14T06:35:32;14.80;63.20
33105;DHT22;19476;51.448;6.674;2023-03-14T06:37:58;14.40;63.10
33105;DHT22;19476;51.448;6.674;2023-03-14T06:40:24;14.50;63.30
33105;DHT22;19476;51.448;6.674;2023-03-14T06:42:50;14.50;63.40
33105;DHT22;19476;51.448;6.674;2023-03-14T06:45:16;14.50;63.40
33105;DHT22;19476;51.448;6.674;2023-03-14T06:47:42;14.50;63.60
33105;DHT22;19476;51.448;6.674;2023-03-14T06:50:09;14.50;63.60
33105;DHT22;19476;51.448;6.674;2023-03-14T06:52:35;14.10;63.70
33105;DHT22;19476;51.448;6.674;2023-03-14T06:55:03;14.40;63.90
33105;DHT22;19476;51.448;6.674;2023-03-14T06:57:28;14.40;64.00
33105;DHT22;19476;51.448;6.674;2023-03-14T06:59:54;14.50;64.00
33105;DHT22;19476;51.448;6.674;2023-03-14T07:02:20;14.50;63.90
33105;DHT22;19476;51.448;6.674;2023-03-14T07:04:47;14.50;64.00
33105;DHT22;19476;51.448;6.674;2023-03-14T07:13:57;14.50;64.50
33105;DHT22;19476;51.448;6.674;2023-03-14T07:16:23;14.50;63.80
33105;DHT22;19476;51.448;6.674;2023-03-14T07:18:48;14.50;63.90
33105;DHT22;19476;51.448;6.674;2023-03-14T07:21:14;14.50;63.80
33105;DHT22;19476;51.448;6.674;2023-03-14T07:23:40;14.60;63.90
33105;DHT22;19476;51.448;6.674;2023-03-14T07:26:07;14.60;64.00
33105;DHT22;19476;51.448;6.674;2023-03-14T07:28:32;14.60;64.00
33105;DHT22;19476;51.448;6.674;2023-03-14T07:30:58;14.60;63.90
33105;DHT22;19476;51.448;6.674;2023-03-14T07:33:24;14.60;63.90
33105;DHT22;19476;51.448;6.674;2023-03-14T07:35:50;14.60;63.90
33105;DHT22;19476;51.448;6.674;2023-03-14T07:38:17;14.70;63.90
33105;DHT22;19476;51.448;6.674;2023-03-14T07:40:42;14.70;64.00
33105;DHT22;19476;51.448;6.674;2023-03-14T07:43:08;14.70;63.80
33105;DHT22;19476;51.448;6.674;2023-03-14T07:45:34;14.70;63.90
33105;DHT22;19476;51.448;6.674;2023-03-14T07:48:00;14.70;63.90
33105;DHT22;19476;51.448;6.674;2023-03-14T07:50:27;14.70;64.10
33105;DHT22;19476;51.448;6.674;2023-03-14T07:52:54;14.70;64.20
33105;DHT22;19476;51.448;6.674;2023-03-14T07:55:20;14.70;64.30
33105;DHT22;19476;51.448;6.674;2023-03-14T07:57:46;14.80;64.40
33105;DHT22;19476;51.448;6.674;2023-03-14T08:00:13;14.80;64.40
33105;DHT22;19476;51.448;6.674;2023-03-14T08:02:40;14.50;64.30
33105;DHT22;19476;51.448;6.674;2023-03-14T08:05:07;14.80;64.60
33105;DHT22;19476;51.448;6.674;2023-03-14T08:07:32;14.80;65.20
33105;DHT22;19476;51.448;6.674;2023-03-14T08:09:58;14.80;64.60
33105;DHT22;19476;51.448;6.674;2023-03-14T08:12:24;14.90;64.80
33105;DHT22;19476;51.448;6.674;2023-03-14T08:14:49;14.90;64.70
33105;DHT22;19476;51.448;6.674;2023-03-14T08:17:15;14.90;64.70
33105;DHT22;19476;51.448;6.674;2023-03-14T08:19:41;14.90;64.70
33105;DHT22;19476;51.448;6.674;2023-03-14T08:22:07;15.00;64.80
33105;DHT22;19476;51.448;6.674;2023-03-14T08:24:33;15.00;64.70
33105;DHT22;19476;51.448;6.674;2023-03-14T08:26:59;15.00;64.60
33105;DHT22;19476;51.448;6.674;2023-03-14T08:29:25;15.00;64.50
33105;DHT22;19476;51.448;6.674;2023-03-14T08:31:51;15.10;64.50
33105;DHT22;19476;51.448;6.674;2023-03-14T08:34:17;15.10;64.50
33105;DHT22;19476;51.448;6.674;2023-03-14T08:36:43;15.10;64.50
33105;DHT22;19476;51.448;6.674;2023-03-14T08:39:09;15.20;64.50
33105;DHT22;19476;51.448;6.674;2023-03-14T08:41:35;15.20;64.40
33105;DHT22;19476;51.448;6.674;2023-03-14T08:44:06;15.10;64.30
33105;DHT22;19476;51.448;6.674;2023-03-14T08:46:32;15.20;64.30
33105;DHT22;19476;51.448;6.674;2023-03-14T08:48:58;15.20;64.20
33105;DHT22;19476;51.448;6.674;2023-03-14T08:51:24;15.10;64.00
33105;DHT22;19476;51.448;6.674;2023-03-14T08:53:50;15.10;64.00
33105;DHT22;19476;51.448;6.674;2023-03-14T08:56:16;15.10;64.10
33105;DHT22;19476;51.448;6.674;2023-03-14T08:58:42;15.10;64.70
33105;DHT22;19476;51.448;6.674;2023-03-14T09:01:09;15.00;64.10
33105;DHT22;19476;51.448;6.674;2023-03-14T09:03:35;15.00;64.20
33105;DHT22;19476;51.448;6.674;2023-03-14T09:06:03;15.00;63.60
33105;DHT22;19476;51.448;6.674;2023-03-14T09:08:29;14.90;62.50
33105;DHT22;19476;51.448;6.674;2023-03-14T09:10:55;14.80;61.70
33105;DHT22;19476;51.448;6.674;2023-03-14T09:13:21;14.70;60.70
33105;DHT22;19476;51.448;6.674;2023-03-14T09:15:51;14.70;60.30
33105;DHT22;19476;51.448;6.674;2023-03-14T09:18:17;14.60;59.90
33105;DHT22;19476;51.448;6.674;2023-03-14T09:20:43;14.50;59.80
33105;DHT22;19476;51.448;6.674;2023-03-14T09:23:09;14.40;59.30
33105;DHT22;19476;51.448;6.674;2023-03-14T09:25:34;14.20;59.30
33105;DHT22;19476;51.448;6.674;2023-03-14T09:28:00;14.20;59.70
33105;DHT22;19476;51.448;6.674;2023-03-14T09:30:26;14.10;60.00
33105;DHT22;19476;51.448;6.674;2023-03-14T09:32:52;14.00;60.20
33105;DHT22;19476;51.448;6.674;2023-03-14T09:35:17;14.00;60.40
33105;DHT22;19476;51.448;6.674;2023-03-14T09:37:43;13.90;60.90
33105;DHT22;19476;51.448;6.674;2023-03-14T09:40:13;13.90;60.50
33105;DHT22;19476;51.448;6.674;2023-03-14T09:42:40;13.90;60.60
33105;DHT22;19476;51.448;6.674;2023-03-14T09:45:13;13.80;60.60
33105;DHT22;19476;51.448;6.674;2023-03-14T09:47:40;13.80;60.90
33105;DHT22;19476;51.448;6.674;2023-03-14T09:50:13;13.70;60.90
33105;DHT22;19476;51.448;6.674;2023-03-14T09:52:43;13.70;60.80
33105;DHT22;19476;51.448;6.674;2023-03-14T09:55:14;13.60;60.90
33105;DHT22;19476;51.448;6.674;2023-03-14T09:57:41;13.60;61.00
33105;DHT22;19476;51.448;6.674;2023-03-14T10:00:18;13.60;61.10
33105;DHT22;19476;51.448;6.674;2023-03-14T10:02:53;13.50;61.10
33105;DHT22;19476;51.448;6.674;2023-03-14T10:05:22;13.50;61.40
33105;DHT22;19476;51.448;6.674;2023-03-14T10:07:48;13.50;61.50
33105;DHT22;19476;51.448;6.674;2023-03-14T10:10:20;13.40;61.40
33105;DHT22;19476;51.448;6.674;2023-03-14T10:15:38;13.40;61.70
33105;DHT22;19476;51.448;6.674;2023-03-14T10:18:13;13.40;61.30
33105;DHT22;19476;51.448;6.674;2023-03-14T10:20:42;13.30;61.10
33105;DHT22;19476;51.448;6.674;2023-03-14T10:25:43;13.30;61.20
33105;DHT22;19476;51.448;6.674;2023-03-14T10:28:30;13.30;61.40
33105;DHT22;19476;51.448;6.674;2023-03-14T10:30:57;13.30;60.80
33105;DHT22;19476;51.448;6.674;2023-03-14T10:33:31;13.30;60.30
33105;DHT22;19476;51.448;6.674;2023-03-14T10:36:01;13.20;59.90
33105;DHT22;19476;51.448;6.674;2023-03-14T10:38:31;13.20;60.00
33105;DHT22;19476;51.448;6.674;2023-03-14T10:40:59;13.20;60.20
33105;DHT22;19476;51.448;6.674;2023-03-14T10:43:34;13.10;59.80
33105;DHT22;19476;51.448;6.674;2023-03-14T10:46:14;13.10;59.20
33105;DHT22;19476;51.448;6.674;2023-03-14T10:48:40;13.10;59.20
33105;DHT22;19476;51.448;6.674;2023-03-14T10:51:10;13.00;58.90
33105;DHT22;19476;51.448;6.674;2023-03-14T10:56:24;13.00;58.10
33105;DHT22;19476;51.448;6.674;2023-03-14T10:58:53;12.90;58.30
33105;DHT22;19476;51.448;6.674;2023-03-14T11:04:43;12.90;59.00
33105;DHT22;19476;51.448;6.674;2023-03-14T11:07:24;12.90;59.30
33105;DHT22;19476;51.448;6.674;2023-03-14T11:10:01;13.00;59.00
33105;DHT22;19476;51.448;6.674;2023-03-14T11:17:46;13.20;57.70
33105;DHT22;19476;51.448;6.674;2023-03-14T11:23:02;13.30;57.20
33105;DHT22;19476;51.448;6.674;2023-03-14T11:25:33;13.40;56.30
33105;DHT22;19476;51.448;6.674;2023-03-14T11:30:55;13.40;55.40
33105;DHT22;19476;51.448;6.674;2023-03-14T11:33:33;13.40;55.20
33105;DHT22;19476;51.448;6.674;2023-03-14T11:36:09;13.40;55.60
33105;DHT22;19476;51.448;6.674;2023-03-14T11:38:43;13.40;55.60
33105;DHT22;19476;51.448;6.674;2023-03-14T11:41:20;13.40;55.50
33105;DHT22;19476;51.448;6.674;2023-03-14T11:43:54;13.40;55.00
33105;DHT22;19476;51.448;6.674;2023-03-14T11:46:27;13.30;54.90
33105;DHT22;19476;51.448;6.674;2023-03-14T11:51:29;13.30;55.50
33105;DHT22;19476;51.448;6.674;2023-03-14T11:56:46;13.40;55.00
33105;DHT22;19476;51.448;6.674;2023-03-14T11:59:24;13.50;55.10
33105;DHT22;19476;51.448;6.674;2023-03-14T12:04:43;13.70;55.30
33105;DHT22;19476;51.448;6.674;2023-03-14T12:07:19;13.80;53.90
33105;DHT22;19476;51.448;6.674;2023-03-14T12:09:47;13.90;53.30
33105;DHT22;19476;51.448;6.674;2023-03-14T12:12:18;13.90;53.30
33105;DHT22;19476;51.448;6.674;2023-03-14T12:14:55;13.90;52.50
33105;DHT22;19476;51.448;6.674;2023-03-14T12:17:34;14.00;51.70
33105;DHT22;19476;51.448;6.674;2023-03-14T12:20:15;14.00;51.50
33105;DHT22;19476;51.448;6.674;2023-03-14T12:25:19;14.10;51.80
33105;DHT22;19476;51.448;6.674;2023-03-14T12:27:46;14.10;50.90
33105;DHT22;19476;51.448;6.674;2023-03-14T12:43:45;13.60;50.10
33105;DHT22;19476;51.448;6.674;2023-03-14T12:51:45;13.60;51.20
33105;DHT22;19476;51.448;6.674;2023-03-14T12:59:38;13.70;51.10
33105;DHT22;19476;51.448;6.674;2023-03-14T13:05:19;13.80;51.00
33105;DHT22;19476;51.448;6.674;2023-03-14T13:15:33;13.80;49.60
33105;DHT22;19476;51.448;6.674;2023-03-14T13:18:03;13.70;50.40
33105;DHT22;19476;51.448;6.674;2023-03-14T13:20:52;13.60;50.50
33105;DHT22;19476;51.448;6.674;2023-03-14T13:23:31;13.60;50.50
33105;DHT22;19476;51.448;6.674;2023-03-14T13:25:59;13.60;50.50
33105;DHT22;19476;51.448;6.674;2023-03-14T13:28:26;13.50;50.70
33105;DHT22;19476;51.448;6.674;2023-03-14T13:31:00;13.50;50.90
33105;DHT22;19476;51.448;6.674;2023-03-14T13:33:27;13.50;51.50
33105;DHT22;19476;51.448;6.674;2023-03-14T13:35:58;13.60;52.10
33105;DHT22;19476;51.448;6.674;2023-03-14T13:38:26;13.60;51.90
33105;DHT22;19476;51.448;6.674;2023-03-14T13:40:55;13.70;52.50
33105;DHT22;19476;51.448;6.674;2023-03-14T13:43:36;13.90;52.20
33105;DHT22;19476;51.448;6.674;2023-03-14T13:46:14;14.10;52.30
33105;DHT22;19476;51.448;6.674;2023-03-14T13:48:45;14.20;52.40
33105;DHT22;19476;51.448;6.674;2023-03-14T13:51:18;14.50;51.10
33105;DHT22;19476;51.448;6.674;2023-03-14T13:53:52;14.60;49.30
33105;DHT22;19476;51.448;6.674;2023-03-14T13:56:24;14.80;48.40
33105;DHT22;19476;51.448;6.674;2023-03-14T13:58:51;15.00;47.10
33105;DHT22;19476;51.448;6.674;2023-03-14T14:01:23;15.10;47.80
33105;DHT22;19476;51.448;6.674;2023-03-14T14:03:54;15.40;46.60
33105;DHT22;19476;51.448;6.674;2023-03-14T14:08:54;15.70;44.10
33105;DHT22;19476;51.448;6.674;2023-03-14T14:11:42;15.90;42.80
33105;DHT22;19476;51.448;6.674;2023-03-14T14:14:16;16.10;39.60
33105;DHT22;19476;51.448;6.674;2023-03-14T14:16:44;16.30;38.90
33105;DHT22;19476;51.448;6.674;2023-03-14T14:19:13;16.40;38.60
33105;DHT22;19476;51.448;6.674;2023-03-14T14:21:39;16.60;38.30
33105;DHT22;19476;51.448;6.674;2023-03-14T14:24:05;16.70;37.50
33105;DHT22;19476;51.448;6.674;2023-03-14T14:26:31;16.80;37.30
33105;DHT22;19476;51.448;6.674;2023-03-14T14:29:05;16.90;38.30
33105;DHT22;19476;51.448;6.674;2023-03-14T14:31:31;17.10;36.40
33105;DHT22;19476;51.448;6.674;2023-03-14T14:33:59;17.20;37.10
33105;DHT22;19476;51.448;6.674;2023-03-14T14:36:40;17.40;36.90
33105;DHT22;19476;51.448;6.674;2023-03-14T14:39:25;17.60;35.70
33105;DHT22;19476;51.448;6.674;2023-03-14T14:41:52;17.80;35.00
33105;DHT22;19476;51.448;6.674;2023-03-14T14:44:29;18.00;35.20
33105;DHT22;19476;51.448;6.674;2023-03-14T14:46:57;18.10;33.90
33105;DHT22;19476;51.448;6.674;2023-03-14T14:49:32;18.20;35.20
33105;DHT22;19476;51.448;6.674;2023-03-14T14:52:14;18.20;33.40
33105;DHT22;19476;51.448;6.674;2023-03-14T14:54:54;18.20;33.30
33105;DHT22;19476;51.448;6.674;2023-03-14T14:57:27;18.30;33.00
33105;DHT22;19476;51.448;6.674;2023-03-14T15:00:00;18.30;33.80
33105;DHT22;19476;51.448;6.674;2023-03-14T15:02:40;18.30;32.80
33105;DHT22;19476;51.448;6.674;2023-03-14T15:07:43;18.20;31.10
33105;DHT22;19476;51.448;6.674;2023-03-14T15:10:13;18.00;32.20
33105;DHT22;19476;51.448;6.674;2023-03-14T15:12:39;17.80;31.20
33105;DHT22;19476;51.448;6.674;2023-03-14T15:15:06;17.60;31.70
33105;DHT22;19476;51.448;6.674;2023-03-14T15:17:32;17.50;32.10
33105;DHT22;19476;51.448;6.674;2023-03-14T15:19:58;17.30;32.30
33105;DHT22;19476;51.448;6.674;2023-03-14T15:22:24;17.10;32.30
33105;DHT22;19476;51.448;6.674;2023-03-14T15:24:50;17.00;32.60
33105;DHT22;19476;51.448;6.674;2023-03-14T15:27:17;16.90;32.40
33105;DHT22;19476;51.448;6.674;2023-03-14T15:29:43;16.70;31.40
33105;DHT22;19476;51.448;6.674;2023-03-14T15:32:14;16.60;32.00
33105;DHT22;19476;51.448;6.674;2023-03-14T15:34:41;16.50;31.70
33105;DHT22;19476;51.448;6.674;2023-03-14T15:37:12;16.30;32.80
33105;DHT22;19476;51.448;6.674;2023-03-14T15:39:39;16.20;32.20
33105;DHT22;19476;51.448;6.674;2023-03-14T15:42:05;16.10;32.70
33105;DHT22;19476;51.448;6.674;2023-03-14T15:44:31;16.00;32.80
33105;DHT22;19476;51.448;6.674;2023-03-14T15:46:56;15.90;32.60
33105;DHT22;19476;51.448;6.674;2023-03-14T15:49:22;15.80;33.00
33105;DHT22;19476;51.448;6.674;2023-03-14T15:51:48;15.70;33.40
33105;DHT22;19476;51.448;6.674;2023-03-14T15:54:14;15.60;33.50
33105;DHT22;19476;51.448;6.674;2023-03-14T15:56:40;15.50;33.20
33105;DHT22;19476;51.448;6.674;2023-03-14T15:59:06;15.40;32.90
33105;DHT22;19476;51.448;6.674;2023-03-14T16:01:32;15.30;33.10
33105;DHT22;19476;51.448;6.674;2023-03-14T16:03:57;15.20;32.90
33105;DHT22;19476;51.448;6.674;2023-03-14T16:06:23;15.10;32.70
33105;DHT22;19476;51.448;6.674;2023-03-14T16:08:49;15.00;32.70
33105;DHT22;19476;51.448;6.674;2023-03-14T16:11:15;14.90;32.60
33105;DHT22;19476;51.448;6.674;2023-03-14T16:13:43;14.80;32.50
33105;DHT22;19476;51.448;6.674;2023-03-14T16:16:09;14.60;32.20
33105;DHT22;19476;51.448;6.674;2023-03-14T16:18:37;14.50;33.00
33105;DHT22;19476;51.448;6.674;2023-03-14T16:21:06;14.50;33.20
33105;DHT22;19476;51.448;6.674;2023-03-14T16:23:33;14.30;33.10
33105;DHT22;19476;51.448;6.674;2023-03-14T16:26:02;14.30;33.20
33105;DHT22;19476;51.448;6.674;2023-03-14T16:28:28;14.20;33.40
33105;DHT22;19476;51.448;6.674;2023-03-14T16:31:00;14.10;33.70
33105;DHT22;19476;51.448;6.674;2023-03-14T16:33:29;14.00;33.80
33105;DHT22;19476;51.448;6.674;2023-03-14T16:36:00;14.00;34.30
33105;DHT22;19476;51.448;6.674;2023-03-14T16:38:27;13.90;33.80
33105;DHT22;19476;51.448;6.674;2023-03-14T16:43:59;13.80;33.00
33105;DHT22;19476;51.448;6.674;2023-03-14T16:46:27;13.70;32.90
33105;DHT22;19476;51.448;6.674;2023-03-14T16:48:55;13.60;33.50
33105;DHT22;19476;51.448;6.674;2023-03-14T16:51:22;13.60;33.40
33105;DHT22;19476;51.448;6.674;2023-03-14T16:53:48;13.50;33.30
33105;DHT22;19476;51.448;6.674;2023-03-14T16:56:14;13.50;33.70
33105;DHT22;19476;51.448;6.674;2023-03-14T16:58:41;13.50;34.00
33105;DHT22;19476;51.448;6.674;2023-03-14T17:01:08;13.40;34.10
33105;DHT22;19476;51.448;6.674;2023-03-14T17:03:42;13.40;33.60
33105;DHT22;19476;51.448;6.674;2023-03-14T17:06:22;13.30;33.50
33105;DHT22;19476;51.448;6.674;2023-03-14T17:08:48;13.30;33.40